createdAt,value
2022-12-04T00:02:25.390Z,96283.84
2022-12-04T00:04:52.104Z,96277.25
2022-12-04T00:07:18.875Z,96270.44
2022-12-04T00:09:45.579Z,96279.59
2022-12-04T00:12:12.227Z,96266.66
2022-12-04T00:15:00.716Z,96267.63
2022-12-04T00:17:25.489Z,96272.41
2022-12-04T00:19:52.287Z,96267.19
2022-12-04T00:22:19.081Z,96263.72
2022-12-04T00:24:45.728Z,96269.47
2022-12-04T00:27:12.391Z,96267.13
2022-12-04T00:29:39.024Z,96260.06
2022-12-04T00:32:05.763Z,96259.09
2022-12-04T00:34:32.461Z,96275.66
2022-12-04T00:36:59.092Z,96266.72
2022-12-04T00:39:25.798Z,96262.09
2022-12-04T00:41:52.421Z,96267.88
2022-12-04T00:44:19.072Z,96258.78
2022-12-04T00:46:45.815Z,96259.09
2022-12-04T00:49:12.435Z,96270.66
2022-12-04T00:51:39.062Z,96270.66
2022-12-04T00:54:05.688Z,96264.66
2022-12-04T00:56:32.325Z,96261.19
2022-12-04T00:58:59.442Z,96263.56
2022-12-04T01:01:29.577Z,96265.38
2022-12-04T01:03:56.298Z,96268.53
2022-12-04T01:06:27.471Z,96265.00
2022-12-04T01:08:54.460Z,96262.19
2022-12-04T01:11:21.517Z,96263.09
2022-12-04T01:13:48.189Z,96261.66
2022-12-04T01:16:22.923Z,96258.19
2022-12-04T01:18:49.862Z,96261.81
2022-12-04T01:21:16.762Z,96270.44
2022-12-04T01:23:43.396Z,96262.97
2022-12-04T01:26:10.119Z,96261.81
2022-12-04T01:28:36.769Z,96274.91
2022-12-04T01:31:11.181Z,96254.91
2022-12-04T01:33:37.994Z,96258.25
2022-12-04T01:36:06.015Z,96253.25
2022-12-04T01:38:33.225Z,96260.84
2022-12-04T01:40:59.878Z,96265.81
2022-12-04T01:43:26.547Z,96259.69
2022-12-04T01:45:54.425Z,96281.44
2022-12-04T01:48:53.287Z,96259.34
2022-12-04T01:51:29.047Z,96262.97
2022-12-04T01:54:09.033Z,96263.66
2022-12-04T01:56:41.379Z,96259.19
2022-12-04T01:59:08.393Z,96250.41
2022-12-04T02:01:38.757Z,96254.97
2022-12-04T02:04:05.415Z,96253.59
2022-12-04T02:06:32.153Z,96252.69
2022-12-04T02:08:58.828Z,96244.53
2022-12-04T02:11:36.992Z,96248.69
2022-12-04T02:14:18.745Z,96237.78
2022-12-04T02:16:47.218Z,96242.03
2022-12-04T02:19:19.413Z,96238.91
2022-12-04T02:21:46.172Z,96239.06
2022-12-04T02:24:50.577Z,96233.19
2022-12-04T02:27:36.186Z,96234.22
2022-12-04T02:30:04.947Z,96236.50
2022-12-04T02:32:43.305Z,96238.25
2022-12-04T02:35:14.459Z,96236.34
2022-12-04T02:37:44.554Z,96235.19
2022-12-04T02:40:19.966Z,96235.88
2022-12-04T02:42:59.992Z,96230.56
2022-12-04T02:45:29.857Z,96242.53
2022-12-04T02:47:56.717Z,96228.16
2022-12-04T02:50:23.394Z,96239.47
2022-12-04T02:53:05.876Z,96235.75
2022-12-04T02:55:35.818Z,96237.75
2022-12-04T02:58:25.591Z,96243.72
2022-12-04T03:00:52.512Z,96246.69
2022-12-04T03:03:21.874Z,96239.59
2022-12-04T03:05:54.315Z,96233.63
2022-12-04T03:08:23.212Z,96242.06
2022-12-04T03:10:52.042Z,96244.72
2022-12-04T03:13:20.436Z,96246.25
2022-12-04T03:15:48.565Z,96255.69
2022-12-04T03:18:26.327Z,96254.63
2022-12-04T03:20:55.581Z,96248.91
2022-12-04T03:23:34.573Z,96251.69
2022-12-04T03:26:15.120Z,96251.38
2022-12-04T03:28:49.882Z,96255.69
2022-12-04T03:31:16.613Z,96255.84
2022-12-04T03:33:45.332Z,96265.91
2022-12-04T03:36:27.365Z,96268.63
2022-12-04T03:39:15.780Z,96269.22
2022-12-04T03:42:05.252Z,96259.03
2022-12-04T03:44:48.847Z,96260.38
2022-12-04T03:47:20.920Z,96261.06
2022-12-04T03:50:17.914Z,96267.31
2022-12-04T03:52:58.370Z,96268.31
2022-12-04T03:55:27.372Z,96265.81
2022-12-04T03:57:57.127Z,96265.75
2022-12-04T04:00:23.776Z,96272.56
2022-12-04T04:02:52.338Z,96267.47
2022-12-04T04:05:19.067Z,96267.47
2022-12-04T04:07:54.685Z,96263.25
2022-12-04T04:10:24.219Z,96270.13
2022-12-04T04:13:00.781Z,96269.63
2022-12-04T04:15:27.486Z,96267.47
2022-12-04T04:17:54.211Z,96265.22
2022-12-04T04:20:27.279Z,96266.81
2022-12-04T04:22:56.350Z,96272.00
2022-12-04T04:25:23.213Z,96267.31
2022-12-04T04:27:57.358Z,96263.41
2022-12-04T04:30:23.991Z,96266.56
2022-12-04T04:32:56.205Z,96264.69
2022-12-04T04:35:38.440Z,96265.13
2022-12-04T04:38:25.173Z,96262.31
2022-12-04T04:41:03.934Z,96264.53
2022-12-04T04:43:50.720Z,96273.00
2022-12-04T04:46:20.667Z,96271.63
2022-12-04T04:48:55.138Z,96276.94
2022-12-04T04:51:21.787Z,96279.59
2022-12-04T04:53:51.929Z,96276.22
2022-12-04T04:56:18.650Z,96286.31
2022-12-04T04:58:45.453Z,96287.53
2022-12-04T05:01:22.723Z,96281.03
2022-12-04T05:03:49.477Z,96294.25
2022-12-04T05:06:16.139Z,96305.03
2022-12-04T05:08:42.783Z,96301.66
2022-12-04T05:11:11.815Z,96305.16
2022-12-04T05:13:38.534Z,96308.34
2022-12-04T05:16:06.572Z,96311.97
2022-12-04T05:18:33.784Z,96308.50
2022-12-04T05:21:04.699Z,96307.13
2022-12-04T05:23:31.319Z,96296.09
2022-12-04T05:26:01.465Z,96300.56
2022-12-04T05:28:28.107Z,96306.53
2022-12-04T05:30:58.988Z,96303.03
2022-12-04T05:33:25.679Z,96297.06
2022-12-04T05:36:02.863Z,96303.31
2022-12-04T05:38:29.504Z,96303.31
2022-12-04T05:40:58.251Z,96308.50
2022-12-04T05:43:24.892Z,96304.69
2022-12-04T05:45:51.523Z,96305.84
2022-12-04T05:48:18.195Z,96304.03
2022-12-04T05:50:44.823Z,96309.72
2022-12-04T05:53:11.442Z,96304.69
2022-12-04T05:55:38.065Z,96308.84
2022-12-04T05:58:04.924Z,96314.03
2022-12-04T06:00:31.664Z,96308.03
2022-12-04T06:02:58.355Z,96311.66
2022-12-04T06:05:25.057Z,96309.84
2022-12-04T06:07:51.717Z,96306.38
2022-12-04T06:10:18.430Z,96312.50
2022-12-04T06:12:45.059Z,96304.41
2022-12-04T06:15:11.698Z,96305.25
2022-12-04T06:17:38.324Z,96305.78
2022-12-04T06:20:11.252Z,96299.25
2022-12-04T06:22:38.464Z,96296.59
2022-12-04T06:25:05.306Z,96300.78
2022-12-04T06:27:31.954Z,96301.66
2022-12-04T06:29:58.991Z,96297.91
2022-12-04T06:32:25.843Z,96301.31
2022-12-04T06:34:53.387Z,96297.59
2022-12-04T06:37:20.865Z,96296.16
2022-12-04T06:39:47.494Z,96295.59
2022-12-04T06:42:14.130Z,96299.13
2022-12-04T06:44:40.775Z,96293.41
2022-12-04T06:47:08.054Z,96300.91
2022-12-04T06:49:34.722Z,96293.94
2022-12-04T06:52:01.356Z,96287.00
2022-12-04T06:54:27.969Z,96293.41
2022-12-04T06:56:54.701Z,96293.28
2022-12-04T06:59:21.344Z,96287.50
2022-12-04T07:01:48.026Z,96286.34
2022-12-04T07:04:14.798Z,96292.19
2022-12-04T07:06:41.532Z,96281.94
2022-12-04T07:09:15.579Z,96282.44
2022-12-04T07:11:42.298Z,96287.09
2022-12-04T07:14:09.039Z,96284.44
2022-12-04T07:16:40.719Z,96280.63
2022-12-04T07:19:12.596Z,96283.16
2022-12-04T07:21:39.236Z,96279.50
2022-12-04T07:24:06.018Z,96273.41
2022-12-04T07:26:32.674Z,96277.19
2022-12-04T07:28:59.507Z,96272.41
2022-12-04T07:31:26.789Z,96280.06
2022-12-04T07:33:53.589Z,96282.06
2022-12-04T07:36:20.299Z,96278.56
2022-12-04T07:38:46.958Z,96281.72
2022-12-04T07:41:13.605Z,96281.41
2022-12-04T07:43:40.495Z,96284.59
2022-12-04T07:46:14.576Z,96289.91
2022-12-04T07:48:41.293Z,96286.09
2022-12-04T07:51:12.412Z,96291.00
2022-12-04T07:53:39.061Z,96303.28
2022-12-04T07:56:06.057Z,96297.69
2022-12-04T07:58:32.894Z,96306.09
2022-12-04T08:01:09.298Z,96311.09
2022-12-04T08:03:36.475Z,96310.25
2022-12-04T08:06:03.634Z,96316.41
2022-12-04T08:08:30.245Z,96311.25
2022-12-04T08:10:57.516Z,96306.97
2022-12-04T08:13:24.249Z,96310.97
2022-12-04T08:15:50.921Z,96319.09
2022-12-04T08:18:17.702Z,96321.75
2022-12-04T08:20:44.375Z,96314.59
2022-12-04T08:23:11.018Z,96311.66
2022-12-04T08:25:41.045Z,96314.16
2022-12-04T08:28:07.723Z,96312.16
2022-12-04T08:30:35.085Z,96314.16
2022-12-04T08:33:01.802Z,96313.22
2022-12-04T08:35:28.479Z,96319.84
2022-12-04T08:37:55.119Z,96320.19
2022-12-04T08:40:21.778Z,96315.03
2022-12-04T08:42:48.512Z,96310.91
2022-12-04T08:45:15.144Z,96311.72
2022-12-04T08:47:41.774Z,96311.56
2022-12-04T08:50:08.580Z,96317.56
2022-12-04T08:52:35.312Z,96313.22
2022-12-04T08:55:01.996Z,96314.44
2022-12-04T08:57:28.622Z,96315.41
2022-12-04T08:59:55.512Z,96307.47
2022-12-04T09:02:22.345Z,96310.56
2022-12-04T09:04:49.056Z,96317.41
2022-12-04T09:07:15.745Z,96308.94
2022-12-04T09:09:47.897Z,96306.63
2022-12-04T09:12:14.943Z,96318.06
2022-12-04T09:14:41.557Z,96315.63
2022-12-04T09:17:08.171Z,96321.44
2022-12-04T09:19:34.789Z,96331.91
2022-12-04T09:22:01.403Z,96330.22
2022-12-04T09:24:29.975Z,96333.03
2022-12-04T09:26:56.594Z,96340.19
2022-12-04T09:29:23.257Z,96342.84
2022-12-04T09:31:49.897Z,96346.34
2022-12-04T09:34:16.516Z,96343.50
2022-12-04T09:36:43.147Z,96347.47
2022-12-04T09:39:09.764Z,96348.84
2022-12-04T09:41:36.277Z,96353.00
2022-12-04T09:44:03.752Z,96347.19
2022-12-04T09:46:39.543Z,96342.22
2022-12-04T09:49:28.057Z,96338.88
2022-12-04T09:51:55.598Z,96344.53
2022-12-04T09:54:24.052Z,96345.38
2022-12-04T09:57:01.787Z,96343.41
2022-12-04T09:59:29.884Z,96344.75
2022-12-04T10:02:21.118Z,96351.38
2022-12-04T10:04:47.876Z,96345.59
2022-12-04T10:07:16.824Z,96346.09
2022-12-04T10:10:20.866Z,96339.63
2022-12-04T10:12:59.003Z,96326.53
2022-12-04T10:15:40.926Z,96328.88
2022-12-04T10:18:26.299Z,96333.38
2022-12-04T10:21:35.044Z,96310.66
2022-12-04T10:24:26.496Z,96316.28
2022-12-04T10:26:53.117Z,96304.66
2022-12-04T10:29:26.348Z,96307.31
2022-12-04T10:31:54.356Z,96299.88
2022-12-04T10:34:25.062Z,96300.56
2022-12-04T10:36:53.307Z,96304.03
2022-12-04T10:39:29.818Z,96300.72
2022-12-04T10:42:14.396Z,96284.41
2022-12-04T10:44:41.040Z,96280.44
2022-12-04T10:47:09.086Z,96282.75
2022-12-04T10:49:35.747Z,96274.44
2022-12-04T10:52:02.389Z,96274.78
2022-12-04T10:54:50.946Z,96284.06
2022-12-04T10:57:17.592Z,96272.97
2022-12-04T10:59:55.075Z,96268.28
2022-12-04T11:02:29.297Z,96277.41
2022-12-04T11:04:57.010Z,96276.28
2022-12-04T11:07:32.163Z,96284.72
2022-12-04T11:10:01.147Z,96280.72
2022-12-04T11:12:27.785Z,96289.22
2022-12-04T11:15:06.222Z,96295.03
2022-12-04T11:17:32.854Z,96298.72
2022-12-04T11:20:06.627Z,96298.53
2022-12-04T11:22:33.262Z,96290.56
2022-12-04T11:24:59.890Z,96294.19
2022-12-04T11:27:32.743Z,96302.38
2022-12-04T11:30:01.262Z,96295.38
2022-12-04T11:32:29.961Z,96292.00
2022-12-04T11:34:59.655Z,96293.19
2022-12-04T11:37:30.683Z,96289.53
2022-12-04T11:39:57.629Z,96281.53
2022-12-04T11:42:26.113Z,96280.22
2022-12-04T11:45:07.693Z,96287.06
2022-12-04T11:47:34.328Z,96281.91
2022-12-04T11:50:23.315Z,96279.25
2022-12-04T11:53:17.550Z,96288.72
2022-12-04T11:56:14.398Z,96299.16
2022-12-04T11:59:18.000Z,96289.88
2022-12-04T12:01:57.924Z,96295.38
2022-12-04T12:04:43.138Z,96299.88
2022-12-04T12:07:22.389Z,96289.69
2022-12-04T12:09:58.703Z,96289.88
2022-12-04T12:13:03.041Z,96283.19
2022-12-04T12:16:07.277Z,96286.72
2022-12-04T12:18:42.910Z,96289.72
2022-12-04T12:21:32.889Z,96282.91
2022-12-04T12:24:27.280Z,96272.75
2022-12-04T12:26:59.861Z,96267.09
2022-12-04T12:29:54.057Z,96268.25
2022-12-04T12:32:33.063Z,96275.94
2022-12-04T12:34:59.695Z,96267.97
2022-12-04T12:37:31.047Z,96271.94
2022-12-04T12:40:12.545Z,96258.25
2022-12-04T12:42:43.905Z,96259.13
2022-12-04T12:45:19.669Z,96264.78
2022-12-04T12:47:46.864Z,96263.59
2022-12-04T12:50:24.738Z,96260.91
2022-12-04T12:53:03.224Z,96254.13
2022-12-04T12:55:36.418Z,96248.97
2022-12-04T12:58:18.144Z,96240.81
2022-12-04T13:01:37.662Z,96246.69
2022-12-04T13:04:11.661Z,96240.34
2022-12-04T13:06:39.873Z,96230.19
2022-12-04T13:09:30.287Z,96234.03
2022-12-04T13:12:06.432Z,96217.22
2022-12-04T13:14:33.654Z,96216.84
2022-12-04T13:17:30.959Z,96215.66
2022-12-04T13:19:57.986Z,96209.84
2022-12-04T13:22:30.588Z,96207.88
2022-12-04T13:25:03.112Z,96202.38
2022-12-04T13:27:58.573Z,96198.16
2022-12-04T13:30:45.001Z,96198.03
2022-12-04T13:33:23.325Z,96193.16
2022-12-04T13:36:28.903Z,96183.34
2022-12-04T13:39:17.134Z,96183.72
2022-12-04T13:41:43.788Z,96185.22
2022-12-04T13:44:14.777Z,96184.38
2022-12-04T13:46:53.917Z,96181.03
2022-12-04T13:49:20.412Z,96192.81
2022-12-04T13:51:48.018Z,96191.50
2022-12-04T13:54:14.502Z,96187.69
2022-12-04T13:56:48.549Z,96198.50
2022-12-04T13:59:28.630Z,96192.53
2022-12-04T14:01:57.212Z,96190.03
2022-12-04T14:04:35.849Z,96192.16
2022-12-04T14:07:03.084Z,96196.66
2022-12-04T14:09:40.657Z,96203.47
2022-12-04T14:12:10.052Z,96199.09
2022-12-04T14:14:40.050Z,96195.72
2022-12-04T14:17:14.531Z,96204.91
2022-12-04T14:19:41.204Z,96209.78
2022-12-04T14:22:31.962Z,96206.47
2022-12-04T14:25:14.650Z,96202.13
2022-12-04T14:27:41.127Z,96204.09
2022-12-04T14:30:28.843Z,96204.25
2022-12-04T14:33:31.001Z,96204.25
2022-12-04T14:36:05.614Z,96209.41
2022-12-04T14:38:32.252Z,96209.22
2022-12-04T14:40:59.004Z,96203.41
2022-12-04T14:43:33.329Z,96202.75
2022-12-04T14:46:24.200Z,96201.59
2022-12-04T14:49:05.780Z,96192.13
2022-12-04T14:51:44.169Z,96193.13
2022-12-04T14:54:38.985Z,96193.63
2022-12-04T14:57:17.447Z,96194.16
2022-12-04T14:59:47.245Z,96192.53
2022-12-04T15:02:22.094Z,96188.84
2022-12-04T15:04:49.273Z,96202.97
2022-12-04T15:07:26.453Z,96207.97
2022-12-04T15:09:54.733Z,96211.63
2022-12-04T15:12:23.771Z,96209.16
2022-12-04T15:14:50.420Z,96215.03
2022-12-04T15:17:17.846Z,96216.84
2022-12-04T15:19:44.518Z,96217.50
2022-12-04T15:22:22.554Z,96225.16
2022-12-04T15:24:50.093Z,96232.63
2022-12-04T15:27:16.733Z,96233.13
2022-12-04T15:29:43.362Z,96234.13
2022-12-04T15:32:11.080Z,96240.28
2022-12-04T15:34:40.685Z,96246.78
2022-12-04T15:37:12.224Z,96243.13
2022-12-04T15:39:38.957Z,96251.28
2022-12-04T15:42:17.364Z,96247.97
2022-12-04T15:45:03.542Z,96251.28
2022-12-04T15:47:32.094Z,96250.63
2022-12-04T15:50:09.020Z,96260.44
2022-12-04T15:52:35.950Z,96264.09
2022-12-04T15:55:06.269Z,96270.56
2022-12-04T15:57:40.451Z,96279.91
2022-12-04T16:00:22.289Z,96293.31
2022-12-04T16:02:48.923Z,96292.03
2022-12-04T16:05:21.404Z,96299.53
2022-12-04T16:07:58.485Z,96302.00
2022-12-04T16:10:34.937Z,96302.34
2022-12-04T16:13:03.009Z,96304.66
2022-12-04T16:15:38.373Z,96315.31
2022-12-04T16:18:05.855Z,96314.66
2022-12-04T16:20:34.433Z,96313.66
2022-12-04T16:23:01.093Z,96321.28
2022-12-04T16:25:27.973Z,96321.44
2022-12-04T16:27:54.608Z,96319.97
2022-12-04T16:30:21.298Z,96315.97
2022-12-04T16:32:48.053Z,96309.00
2022-12-04T16:35:16.677Z,96309.00
2022-12-04T16:37:43.326Z,96301.38
2022-12-04T16:40:11.762Z,96289.56
2022-12-04T16:42:38.516Z,96288.38
2022-12-04T16:45:20.156Z,96292.56
2022-12-04T16:47:47.411Z,96296.22
2022-12-04T16:50:14.139Z,96286.22
2022-12-04T16:52:40.827Z,96289.56
2022-12-04T16:55:18.466Z,96295.69
2022-12-04T16:57:45.095Z,96314.16
2022-12-04T17:00:15.354Z,96310.47
2022-12-04T17:02:42.026Z,96321.47
2022-12-04T17:05:19.664Z,96314.31
2022-12-04T17:07:46.341Z,96322.13
2022-12-04T17:10:13.232Z,96332.59
2022-12-04T17:12:40.485Z,96336.25
2022-12-04T17:15:07.545Z,96342.25
2022-12-04T17:17:34.182Z,96355.22
2022-12-04T17:20:00.811Z,96358.88
2022-12-04T17:22:27.536Z,96359.72
2022-12-04T17:24:56.247Z,96366.53
2022-12-04T17:27:23.278Z,96382.47
2022-12-04T17:29:49.907Z,96372.34
2022-12-04T17:32:16.536Z,96371.66
2022-12-04T17:34:43.173Z,96374.00
2022-12-04T17:37:09.897Z,96377.69
2022-12-04T17:39:36.511Z,96374.84
2022-12-04T17:42:03.142Z,96376.84
2022-12-04T17:44:29.798Z,96379.50
2022-12-04T17:46:56.507Z,96397.63
2022-12-04T17:49:23.199Z,96402.59
2022-12-04T17:51:49.844Z,96395.78
2022-12-04T17:54:16.469Z,96400.78
2022-12-04T17:56:47.756Z,96395.47
2022-12-04T17:59:16.190Z,96381.47
2022-12-04T18:01:43.090Z,96374.19
2022-12-04T18:04:09.746Z,96358.88
2022-12-04T18:06:37.929Z,96365.53
2022-12-04T18:09:05.350Z,96392.13
2022-12-04T18:11:33.023Z,96410.91
2022-12-04T18:14:12.339Z,96421.25
2022-12-04T18:16:49.596Z,96409.88
2022-12-04T18:19:16.471Z,96420.84
2022-12-04T18:21:43.187Z,96415.72
2022-12-04T18:24:09.835Z,96408.25
2022-12-04T18:26:39.800Z,96393.91
2022-12-04T18:29:06.438Z,96379.47
2022-12-04T18:31:33.216Z,96374.34
2022-12-04T18:33:59.918Z,96396.09
2022-12-04T18:36:31.554Z,96394.94
2022-12-04T18:39:00.441Z,96404.56
2022-12-04T18:41:27.565Z,96393.09
2022-12-04T18:43:54.270Z,96409.78
2022-12-04T18:46:21.095Z,96415.72
2022-12-04T18:48:48.150Z,96425.34
2022-12-04T18:51:34.944Z,96427.84
2022-12-04T18:54:06.858Z,96431.50
2022-12-04T18:56:34.016Z,96434.31
2022-12-04T18:59:08.621Z,96449.63
2022-12-04T19:01:35.299Z,96455.44
2022-12-04T19:04:03.805Z,96455.00
2022-12-04T19:06:32.204Z,96460.94
2022-12-04T19:09:00.217Z,96453.31
2022-12-04T19:11:26.921Z,96454.16
2022-12-04T19:13:54.476Z,96471.28
2022-12-04T19:16:21.237Z,96462.13
2022-12-04T19:18:47.942Z,96462.47
2022-12-04T19:21:14.597Z,96459.63
2022-12-04T19:23:41.628Z,96465.47
2022-12-04T19:26:08.265Z,96475.44
2022-12-04T19:28:35.238Z,96472.78
2022-12-04T19:31:01.916Z,96470.63
2022-12-04T19:33:28.556Z,96489.06
2022-12-04T19:35:58.729Z,96502.38
2022-12-04T19:38:25.631Z,96514.84
2022-12-04T19:41:05.745Z,96508.03
2022-12-04T19:43:32.405Z,96512.50
2022-12-04T19:45:59.873Z,96506.03
2022-12-04T19:48:26.803Z,96520.81
2022-12-04T19:50:53.435Z,96531.13
2022-12-04T19:53:20.071Z,96527.78
2022-12-04T19:55:46.727Z,96518.13
2022-12-04T19:58:13.468Z,96500.00
2022-12-04T20:00:40.138Z,96520.94
2022-12-04T20:03:06.759Z,96523.44
2022-12-04T20:05:36.152Z,96523.44
2022-12-04T20:10:28.285Z,96519.94
2022-12-04T20:12:54.929Z,96525.13
2022-12-04T20:15:21.586Z,96538.22
2022-12-04T20:17:48.254Z,96545.00
2022-12-04T20:20:14.878Z,96540.38
2022-12-04T20:22:41.534Z,96528.06
2022-12-04T20:25:08.404Z,96510.81
2022-12-04T20:27:35.074Z,96521.44
2022-12-04T20:30:01.720Z,96522.94
2022-12-04T20:32:28.356Z,96530.31
2022-12-04T20:34:55.039Z,96532.56
2022-12-04T20:37:21.733Z,96547.25
2022-12-04T20:39:48.398Z,96552.09
2022-12-04T20:42:15.041Z,96559.34
2022-12-04T20:44:41.676Z,96564.00
2022-12-04T20:47:08.348Z,96576.47
2022-12-04T20:49:35.039Z,96576.78
2022-12-04T20:52:01.667Z,96590.94
2022-12-04T20:54:28.798Z,96593.41
2022-12-04T20:56:55.663Z,96591.88
2022-12-04T20:59:22.724Z,96585.44
2022-12-04T21:01:49.465Z,96580.13
2022-12-04T21:04:16.298Z,96582.94
2022-12-04T21:06:42.977Z,96587.28
2022-12-04T21:09:14.827Z,96602.41
2022-12-04T21:11:43.428Z,96615.69
2022-12-04T21:14:18.196Z,96614.16
2022-12-04T21:16:45.185Z,96629.66
2022-12-04T21:19:13.523Z,96633.00
2022-12-04T21:21:40.466Z,96634.66
2022-12-04T21:24:08.115Z,96644.28
2022-12-04T21:26:34.842Z,96657.00
2022-12-04T21:29:01.694Z,96662.59
2022-12-04T21:31:28.529Z,96669.06
2022-12-04T21:33:55.899Z,96681.03
2022-12-04T21:36:22.550Z,96684.84
2022-12-04T21:38:49.236Z,96689.78
2022-12-04T21:41:15.912Z,96685.69
2022-12-04T21:43:42.544Z,96674.22
2022-12-04T21:46:09.735Z,96687.13
2022-12-04T21:48:36.679Z,96686.81
2022-12-04T21:51:13.275Z,96689.91
2022-12-04T21:53:53.787Z,96689.59
2022-12-04T21:56:23.883Z,96687.06
2022-12-04T21:58:50.836Z,96686.47
2022-12-04T22:01:17.884Z,96685.63
2022-12-04T22:03:44.598Z,96681.53
2022-12-04T22:06:11.259Z,96674.53
2022-12-04T22:08:38.854Z,96667.28
2022-12-04T22:11:06.472Z,96669.06
2022-12-04T22:13:33.419Z,96675.34
2022-12-04T22:16:04.131Z,96672.03
2022-12-04T22:18:30.798Z,96674.78
2022-12-04T22:20:57.471Z,96667.97
2022-12-04T22:23:24.108Z,96663.50
2022-12-04T22:25:50.733Z,96664.56
2022-12-04T22:28:17.440Z,96670.38
2022-12-04T22:30:44.086Z,96669.06
2022-12-04T22:33:10.800Z,96670.22
2022-12-04T22:35:37.509Z,96673.44
2022-12-04T22:38:04.128Z,96674.88
2022-12-04T22:40:30.754Z,96667.22
2022-12-04T22:42:57.430Z,96675.38
2022-12-04T22:45:24.118Z,96676.63
2022-12-04T22:47:50.780Z,96690.00
2022-12-04T22:50:17.562Z,96709.06
2022-12-04T22:52:44.235Z,96700.09
2022-12-04T22:55:10.870Z,96696.63
2022-12-04T22:57:37.504Z,96688.97
2022-12-04T23:00:04.470Z,96691.47
2022-12-04T23:02:32.480Z,96693.66
2022-12-04T23:04:59.195Z,96685.66
2022-12-04T23:07:25.849Z,96687.66
2022-12-04T23:09:52.487Z,96691.97
2022-12-04T23:12:19.116Z,96688.50
2022-12-04T23:14:45.743Z,96699.94
2022-12-04T23:17:12.377Z,96708.16
2022-12-04T23:19:39.144Z,96705.16
2022-12-04T23:22:05.776Z,96699.84
2022-12-04T23:24:32.404Z,96712.31
2022-12-04T23:26:59.072Z,96712.25
2022-12-04T23:32:12.379Z,96717.09
2022-12-04T23:34:39.011Z,96715.88
2022-12-04T23:37:05.632Z,96711.03
2022-12-04T23:39:32.245Z,96718.84
2022-12-04T23:41:58.872Z,96710.50
2022-12-04T23:44:25.499Z,96714.97
2022-12-04T23:46:52.270Z,96726.59
2022-12-04T23:49:18.927Z,96727.03
2022-12-04T23:51:45.643Z,96724.75
2022-12-04T23:54:12.258Z,96728.94
2022-12-04T23:56:38.881Z,96726.44
2022-12-04T23:59:05.509Z,96743.50
